Portada
METAR-TAF:

METAR-TAF

Aeroports :

Kermanxah, Iran

latitud: 34-16N, longitud: 047-07E, altitud: 1320 m

Observació

L'informe es va fer fa 55 minuts, a les 20:00 UTC
Vent 8 kt del Sud-Est
Temperatura 5°C
Humitat 93%
Pressió 1007 hPa
Visibilitat: 7000 m
Escasses núvols a una alçada de 3000 ft, Cumulonimbus.
Cel ennuvolat a una alçada de 3500 ft
Cel cobert a una alçada de 6000 ft
pluja

METAR: OICC 252000Z 13008KT 7000 RA FEW030CB BKN035 OVC060 05/04 Q1007 A2975

Hora: 00:25 (20:55 UTC)


TAF: manca

Observacions i pronòstics meteorològics de més de 4000 aeroports (METAR i TAF).

Les estacions disponibles són els punts grocs i vermells al mapa.

Posi el ratolí al punt desitjat per veure el nom de l'estació.

Feu clic per veure les observacions i els pronòstics meteorològics.

Per canviar el mapa: feu clic els botons verds amb una creu de color negre per apropar; al botó verd amb un guió per allunyar la imatge; o en les fletxes verdes per a mapes adjacents.


METAR-TAF: